sensor_id;sensor_type;location;lat;lon;timestamp;P1;durP1;ratioP1;P2;durP2;ratioP2
8656;SDS011;4366;50.764;7.184;2023-02-23T00:03:17;17.90;;;13.63;;
8656;SDS011;4366;50.764;7.184;2023-02-23T00:08:18;18.80;;;13.57;;
8656;SDS011;4366;50.764;7.184;2023-02-23T00:13:20;16.73;;;12.63;;
8656;SDS011;4366;50.764;7.184;2023-02-23T00:18:22;18.53;;;14.00;;
8656;SDS011;4366;50.764;7.184;2023-02-23T00:23:23;19.50;;;14.60;;
8656;SDS011;4366;50.764;7.184;2023-02-23T00:28:27;19.23;;;14.43;;
8656;SDS011;4366;50.764;7.184;2023-02-23T00:33:29;20.37;;;14.63;;
8656;SDS011;4366;50.764;7.184;2023-02-23T00:38:31;20.17;;;14.87;;
8656;SDS011;4366;50.764;7.184;2023-02-23T00:43:37;21.23;;;15.10;;
8656;SDS011;4366;50.764;7.184;2023-02-23T00:48:48;17.77;;;13.33;;
8656;SDS011;4366;50.764;7.184;2023-02-23T00:53:52;19.90;;;14.70;;
8656;SDS011;4366;50.764;7.184;2023-02-23T00:58:55;18.50;;;13.60;;
8656;SDS011;4366;50.764;7.184;2023-02-23T01:04:00;19.37;;;14.70;;
8656;SDS011;4366;50.764;7.184;2023-02-23T01:09:07;22.63;;;13.77;;
8656;SDS011;4366;50.764;7.184;2023-02-23T01:14:11;20.13;;;14.23;;
8656;SDS011;4366;50.764;7.184;2023-02-23T01:19:14;18.23;;;14.10;;
8656;SDS011;4366;50.764;7.184;2023-02-23T01:24:16;18.67;;;14.57;;
8656;SDS011;4366;50.764;7.184;2023-02-23T01:29:18;18.50;;;13.53;;
8656;SDS011;4366;50.764;7.184;2023-02-23T01:34:20;19.67;;;14.03;;
8656;SDS011;4366;50.764;7.184;2023-02-23T01:39:22;17.13;;;12.60;;
8656;SDS011;4366;50.764;7.184;2023-02-23T01:49:26;17.87;;;12.80;;
8656;SDS011;4366;50.764;7.184;2023-02-23T01:54:34;18.30;;;13.97;;
8656;SDS011;4366;50.764;7.184;2023-02-23T02:04:47;17.93;;;13.03;;
8656;SDS011;4366;50.764;7.184;2023-02-23T02:09:53;19.43;;;13.77;;
8656;SDS011;4366;50.764;7.184;2023-02-23T02:15:12;17.30;;;13.13;;
8656;SDS011;4366;50.764;7.184;2023-02-23T02:31:01;21.33;;;14.57;;
8656;SDS011;4366;50.764;7.184;2023-02-23T02:41:51;16.33;;;12.93;;
8656;SDS011;4366;50.764;7.184;2023-02-23T02:46:59;15.77;;;12.30;;
8656;SDS011;4366;50.764;7.184;2023-02-23T02:57:09;17.67;;;12.77;;
8656;SDS011;4366;50.764;7.184;2023-02-23T03:02:19;17.50;;;12.47;;
8656;SDS011;4366;50.764;7.184;2023-02-23T03:07:44;21.03;;;13.93;;
8656;SDS011;4366;50.764;7.184;2023-02-23T03:13:16;20.50;;;15.53;;
8656;SDS011;4366;50.764;7.184;2023-02-23T03:19:07;20.80;;;14.43;;
8656;SDS011;4366;50.764;7.184;2023-02-23T03:29:58;16.10;;;12.80;;
8656;SDS011;4366;50.764;7.184;2023-02-23T03:35:29;20.53;;;12.50;;
8656;SDS011;4366;50.764;7.184;2023-02-23T03:40:53;17.23;;;13.00;;
8656;SDS011;4366;50.764;7.184;2023-02-23T03:46:14;13.93;;;12.40;;
8656;SDS011;4366;50.764;7.184;2023-02-23T03:51:37;17.87;;;12.93;;
8656;SDS011;4366;50.764;7.184;2023-02-23T03:56:58;15.57;;;12.20;;
8656;SDS011;4366;50.764;7.184;2023-02-23T04:02:21;21.17;;;12.63;;
8656;SDS011;4366;50.764;7.184;2023-02-23T04:07:42;17.23;;;12.87;;
8656;SDS011;4366;50.764;7.184;2023-02-23T04:13:06;16.10;;;12.60;;
8656;SDS011;4366;50.764;7.184;2023-02-23T04:18:21;14.37;;;11.20;;
8656;SDS011;4366;50.764;7.184;2023-02-23T04:23:24;16.70;;;13.00;;
8656;SDS011;4366;50.764;7.184;2023-02-23T04:28:26;24.43;;;14.70;;
8656;SDS011;4366;50.764;7.184;2023-02-23T04:33:28;17.83;;;12.57;;
8656;SDS011;4366;50.764;7.184;2023-02-23T04:38:30;17.33;;;12.50;;
8656;SDS011;4366;50.764;7.184;2023-02-23T04:43:32;16.30;;;14.10;;
8656;SDS011;4366;50.764;7.184;2023-02-23T04:48:33;18.03;;;13.60;;
8656;SDS011;4366;50.764;7.184;2023-02-23T04:53:35;15.73;;;12.83;;
8656;SDS011;4366;50.764;7.184;2023-02-23T04:58:38;19.37;;;14.63;;
8656;SDS011;4366;50.764;7.184;2023-02-23T05:03:40;27.10;;;17.20;;
8656;SDS011;4366;50.764;7.184;2023-02-23T05:08:41;29.50;;;20.23;;
8656;SDS011;4366;50.764;7.184;2023-02-23T05:13:43;31.03;;;21.77;;
8656;SDS011;4366;50.764;7.184;2023-02-23T05:18:45;31.70;;;22.43;;
8656;SDS011;4366;50.764;7.184;2023-02-23T05:23:47;33.60;;;22.73;;
8656;SDS011;4366;50.764;7.184;2023-02-23T05:28:49;33.80;;;21.93;;
8656;SDS011;4366;50.764;7.184;2023-02-23T05:33:50;36.07;;;23.47;;
8656;SDS011;4366;50.764;7.184;2023-02-23T05:38:52;38.00;;;24.50;;
8656;SDS011;4366;50.764;7.184;2023-02-23T05:43:55;32.50;;;22.33;;
8656;SDS011;4366;50.764;7.184;2023-02-23T05:48:57;39.13;;;24.40;;
8656;SDS011;4366;50.764;7.184;2023-02-23T05:54:01;36.90;;;24.83;;
8656;SDS011;4366;50.764;7.184;2023-02-23T05:59:02;38.43;;;26.17;;
8656;SDS011;4366;50.764;7.184;2023-02-23T06:04:05;38.03;;;25.90;;
8656;SDS011;4366;50.764;7.184;2023-02-23T06:09:06;40.47;;;27.20;;
8656;SDS011;4366;50.764;7.184;2023-02-23T06:14:08;41.53;;;27.13;;
8656;SDS011;4366;50.764;7.184;2023-02-23T06:19:10;41.00;;;26.23;;
8656;SDS011;4366;50.764;7.184;2023-02-23T06:24:12;35.90;;;25.00;;
8656;SDS011;4366;50.764;7.184;2023-02-23T06:29:14;40.33;;;26.73;;
8656;SDS011;4366;50.764;7.184;2023-02-23T06:34:17;41.10;;;26.57;;
8656;SDS011;4366;50.764;7.184;2023-02-23T06:39:19;41.20;;;26.50;;
8656;SDS011;4366;50.764;7.184;2023-02-23T06:44:21;40.43;;;26.97;;
8656;SDS011;4366;50.764;7.184;2023-02-23T06:49:22;34.87;;;24.80;;
8656;SDS011;4366;50.764;7.184;2023-02-23T06:54:24;39.57;;;26.53;;
8656;SDS011;4366;50.764;7.184;2023-02-23T06:59:26;38.10;;;25.37;;
8656;SDS011;4366;50.764;7.184;2023-02-23T07:04:28;39.83;;;25.50;;
8656;SDS011;4366;50.764;7.184;2023-02-23T07:09:30;37.73;;;24.53;;
8656;SDS011;4366;50.764;7.184;2023-02-23T07:14:32;35.87;;;23.43;;
8656;SDS011;4366;50.764;7.184;2023-02-23T07:19:34;37.33;;;24.97;;
8656;SDS011;4366;50.764;7.184;2023-02-23T07:24:35;35.67;;;23.20;;
8656;SDS011;4366;50.764;7.184;2023-02-23T07:29:38;30.00;;;22.03;;
8656;SDS011;4366;50.764;7.184;2023-02-23T07:34:40;31.27;;;22.33;;
8656;SDS011;4366;50.764;7.184;2023-02-23T07:39:42;32.50;;;22.17;;
8656;SDS011;4366;50.764;7.184;2023-02-23T07:44:44;34.13;;;22.30;;
8656;SDS011;4366;50.764;7.184;2023-02-23T07:49:45;26.97;;;20.13;;
8656;SDS011;4366;50.764;7.184;2023-02-23T07:54:48;33.07;;;22.93;;
8656;SDS011;4366;50.764;7.184;2023-02-23T07:59:49;31.60;;;22.37;;
8656;SDS011;4366;50.764;7.184;2023-02-23T08:04:51;29.60;;;20.90;;
8656;SDS011;4366;50.764;7.184;2023-02-23T08:09:54;29.80;;;21.90;;
8656;SDS011;4366;50.764;7.184;2023-02-23T08:14:56;32.83;;;20.93;;
8656;SDS011;4366;50.764;7.184;2023-02-23T08:19:57;30.37;;;21.43;;
8656;SDS011;4366;50.764;7.184;2023-02-23T08:24:59;34.73;;;21.33;;
8656;SDS011;4366;50.764;7.184;2023-02-23T08:30:02;33.83;;;21.17;;
8656;SDS011;4366;50.764;7.184;2023-02-23T08:35:05;31.80;;;20.87;;
8656;SDS011;4366;50.764;7.184;2023-02-23T08:40:08;29.67;;;19.70;;
8656;SDS011;4366;50.764;7.184;2023-02-23T08:45:10;30.00;;;20.13;;
8656;SDS011;4366;50.764;7.184;2023-02-23T08:50:12;26.37;;;18.57;;
8656;SDS011;4366;50.764;7.184;2023-02-23T08:55:15;29.50;;;19.40;;
8656;SDS011;4366;50.764;7.184;2023-02-23T09:00:18;30.97;;;19.37;;
8656;SDS011;4366;50.764;7.184;2023-02-23T09:05:20;27.23;;;18.17;;
8656;SDS011;4366;50.764;7.184;2023-02-23T09:10:22;28.00;;;18.37;;
8656;SDS011;4366;50.764;7.184;2023-02-23T09:15:28;26.90;;;18.73;;
8656;SDS011;4366;50.764;7.184;2023-02-23T09:20:30;27.60;;;19.00;;
8656;SDS011;4366;50.764;7.184;2023-02-23T09:25:32;27.93;;;18.20;;
8656;SDS011;4366;50.764;7.184;2023-02-23T09:30:34;29.07;;;19.03;;
8656;SDS011;4366;50.764;7.184;2023-02-23T09:35:36;27.67;;;18.27;;
8656;SDS011;4366;50.764;7.184;2023-02-23T09:40:43;27.03;;;17.20;;
8656;SDS011;4366;50.764;7.184;2023-02-23T09:46:26;30.03;;;18.00;;
8656;SDS011;4366;50.764;7.184;2023-02-23T09:51:16;24.43;;;16.63;;
8656;SDS011;4366;50.764;7.184;2023-02-23T10:06:39;26.80;;;16.47;;
8656;SDS011;4366;50.764;7.184;2023-02-23T10:11:52;23.10;;;15.67;;
8656;SDS011;4366;50.764;7.184;2023-02-23T10:17:03;23.67;;;16.20;;
8656;SDS011;4366;50.764;7.184;2023-02-23T10:22:12;21.47;;;15.27;;
8656;SDS011;4366;50.764;7.184;2023-02-23T10:27:16;23.47;;;15.83;;
8656;SDS011;4366;50.764;7.184;2023-02-23T10:32:23;24.40;;;14.57;;
8656;SDS011;4366;50.764;7.184;2023-02-23T10:37:29;23.50;;;15.97;;
8656;SDS011;4366;50.764;7.184;2023-02-23T10:42:32;24.57;;;15.63;;
8656;SDS011;4366;50.764;7.184;2023-02-23T10:47:34;24.57;;;15.80;;
8656;SDS011;4366;50.764;7.184;2023-02-23T10:52:44;23.87;;;15.47;;
8656;SDS011;4366;50.764;7.184;2023-02-23T10:57:47;25.43;;;16.60;;
8656;SDS011;4366;50.764;7.184;2023-02-23T11:02:52;26.23;;;16.10;;
8656;SDS011;4366;50.764;7.184;2023-02-23T11:13:42;22.27;;;15.43;;
8656;SDS011;4366;50.764;7.184;2023-02-23T11:18:53;21.33;;;15.07;;
8656;SDS011;4366;50.764;7.184;2023-02-23T11:34:34;21.43;;;15.00;;
8656;SDS011;4366;50.764;7.184;2023-02-23T11:39:54;21.73;;;14.57;;
8656;SDS011;4366;50.764;7.184;2023-02-23T11:45:06;24.53;;;15.03;;
8656;SDS011;4366;50.764;7.184;2023-02-23T11:50:19;19.20;;;13.93;;
8656;SDS011;4366;50.764;7.184;2023-02-23T11:55:24;20.03;;;13.20;;
8656;SDS011;4366;50.764;7.184;2023-02-23T12:00:26;22.50;;;14.47;;
8656;SDS011;4366;50.764;7.184;2023-02-23T12:05:28;20.33;;;14.67;;
8656;SDS011;4366;50.764;7.184;2023-02-23T12:10:52;18.83;;;12.67;;
8656;SDS011;4366;50.764;7.184;2023-02-23T12:15:57;18.57;;;12.73;;
8656;SDS011;4366;50.764;7.184;2023-02-23T12:26:21;22.40;;;15.07;;
8656;SDS011;4366;50.764;7.184;2023-02-23T12:31:28;24.10;;;15.37;;
8656;SDS011;4366;50.764;7.184;2023-02-23T12:48:02;23.43;;;15.97;;
8656;SDS011;4366;50.764;7.184;2023-02-23T12:53:32;23.03;;;15.50;;
8656;SDS011;4366;50.764;7.184;2023-02-23T13:19:47;25.80;;;14.87;;
8656;SDS011;4366;50.764;7.184;2023-02-23T13:24:34;27.23;;;16.87;;
8656;SDS011;4366;50.764;7.184;2023-02-23T13:29:41;31.03;;;17.00;;
8656;SDS011;4366;50.764;7.184;2023-02-23T13:34:47;31.03;;;17.63;;
8656;SDS011;4366;50.764;7.184;2023-02-23T13:50:46;27.30;;;14.50;;
8656;SDS011;4366;50.764;7.184;2023-02-23T13:55:53;28.20;;;14.27;;
8656;SDS011;4366;50.764;7.184;2023-02-23T14:01:09;19.47;;;10.03;;
8656;SDS011;4366;50.764;7.184;2023-02-23T14:06:14;14.73;;;8.47;;
8656;SDS011;4366;50.764;7.184;2023-02-23T14:11:28;20.17;;;10.57;;
8656;SDS011;4366;50.764;7.184;2023-02-23T14:16:34;22.00;;;11.57;;
8656;SDS011;4366;50.764;7.184;2023-02-23T14:21:47;24.83;;;13.03;;
8656;SDS011;4366;50.764;7.184;2023-02-23T14:32:45;19.43;;;11.27;;
8656;SDS011;4366;50.764;7.184;2023-02-23T14:38:04;21.90;;;12.20;;
8656;SDS011;4366;50.764;7.184;2023-02-23T14:48:32;24.93;;;13.47;;
8656;SDS011;4366;50.764;7.184;2023-02-23T14:53:37;25.90;;;13.97;;
8656;SDS011;4366;50.764;7.184;2023-02-23T14:58:40;25.27;;;13.83;;
8656;SDS011;4366;50.764;7.184;2023-02-23T15:04:03;27.93;;;13.73;;
8656;SDS011;4366;50.764;7.184;2023-02-23T15:09:13;27.97;;;14.77;;
8656;SDS011;4366;50.764;7.184;2023-02-23T15:14:17;30.20;;;14.97;;
8656;SDS011;4366;50.764;7.184;2023-02-23T15:19:29;28.73;;;15.03;;
8656;SDS011;4366;50.764;7.184;2023-02-23T15:24:42;32.63;;;15.80;;
8656;SDS011;4366;50.764;7.184;2023-02-23T15:29:45;31.57;;;15.87;;
8656;SDS011;4366;50.764;7.184;2023-02-23T15:34:47;28.37;;;13.13;;
8656;SDS011;4366;50.764;7.184;2023-02-23T15:39:50;27.13;;;13.73;;
8656;SDS011;4366;50.764;7.184;2023-02-23T15:45:01;22.87;;;13.07;;
8656;SDS011;4366;50.764;7.184;2023-02-23T15:55:32;24.37;;;12.67;;
8656;SDS011;4366;50.764;7.184;2023-02-23T16:00:36;23.37;;;12.03;;
8656;SDS011;4366;50.764;7.184;2023-02-23T16:05:52;18.80;;;10.37;;
8656;SDS011;4366;50.764;7.184;2023-02-23T16:11:08;22.83;;;12.37;;
8656;SDS011;4366;50.764;7.184;2023-02-23T16:16:14;20.03;;;11.10;;
8656;SDS011;4366;50.764;7.184;2023-02-23T16:21:22;22.73;;;11.43;;
8656;SDS011;4366;50.764;7.184;2023-02-23T16:31:42;21.77;;;11.57;;
8656;SDS011;4366;50.764;7.184;2023-02-23T16:36:48;25.07;;;12.20;;
8656;SDS011;4366;50.764;7.184;2023-02-23T16:41:51;20.23;;;11.80;;
8656;SDS011;4366;50.764;7.184;2023-02-23T16:51:58;17.60;;;10.57;;
8656;SDS011;4366;50.764;7.184;2023-02-23T16:57:00;21.43;;;11.63;;
8656;SDS011;4366;50.764;7.184;2023-02-23T17:02:02;20.50;;;11.50;;
8656;SDS011;4366;50.764;7.184;2023-02-23T17:07:03;19.43;;;12.20;;
8656;SDS011;4366;50.764;7.184;2023-02-23T17:12:05;21.97;;;12.43;;
8656;SDS011;4366;50.764;7.184;2023-02-23T17:17:09;23.27;;;12.27;;
8656;SDS011;4366;50.764;7.184;2023-02-23T17:22:14;22.40;;;12.57;;
8656;SDS011;4366;50.764;7.184;2023-02-23T17:27:16;20.53;;;11.77;;
8656;SDS011;4366;50.764;7.184;2023-02-23T17:32:18;26.57;;;13.60;;
8656;SDS011;4366;50.764;7.184;2023-02-23T17:37:24;26.67;;;13.43;;
8656;SDS011;4366;50.764;7.184;2023-02-23T17:42:28;23.60;;;13.87;;
8656;SDS011;4366;50.764;7.184;2023-02-23T17:47:34;33.83;;;15.17;;
8656;SDS011;4366;50.764;7.184;2023-02-23T17:52:37;26.17;;;14.10;;
8656;SDS011;4366;50.764;7.184;2023-02-23T17:57:38;28.47;;;15.03;;
8656;SDS011;4366;50.764;7.184;2023-02-23T18:02:41;28.47;;;14.83;;
8656;SDS011;4366;50.764;7.184;2023-02-23T18:07:43;32.10;;;16.90;;
8656;SDS011;4366;50.764;7.184;2023-02-23T18:12:52;28.90;;;14.97;;
8656;SDS011;4366;50.764;7.184;2023-02-23T18:17:54;31.27;;;14.97;;
8656;SDS011;4366;50.764;7.184;2023-02-23T18:22:57;27.13;;;14.87;;
8656;SDS011;4366;50.764;7.184;2023-02-23T18:27:59;30.33;;;14.27;;
8656;SDS011;4366;50.764;7.184;2023-02-23T18:33:01;26.37;;;13.07;;
8656;SDS011;4366;50.764;7.184;2023-02-23T18:38:04;31.63;;;14.60;;
8656;SDS011;4366;50.764;7.184;2023-02-23T18:43:06;28.57;;;13.87;;
8656;SDS011;4366;50.764;7.184;2023-02-23T18:48:08;31.83;;;13.93;;
8656;SDS011;4366;50.764;7.184;2023-02-23T18:53:13;29.83;;;14.07;;
8656;SDS011;4366;50.764;7.184;2023-02-23T18:58:15;29.80;;;14.37;;
8656;SDS011;4366;50.764;7.184;2023-02-23T19:03:17;31.60;;;14.63;;
8656;SDS011;4366;50.764;7.184;2023-02-23T19:08:19;30.93;;;14.23;;
8656;SDS011;4366;50.764;7.184;2023-02-23T19:13:20;29.77;;;13.20;;
8656;SDS011;4366;50.764;7.184;2023-02-23T19:18:23;27.43;;;14.77;;
8656;SDS011;4366;50.764;7.184;2023-02-23T19:23:27;29.83;;;13.90;;
8656;SDS011;4366;50.764;7.184;2023-02-23T19:28:29;27.70;;;14.47;;
8656;SDS011;4366;50.764;7.184;2023-02-23T19:33:31;29.70;;;14.97;;
8656;SDS011;4366;50.764;7.184;2023-02-23T19:38:33;27.70;;;13.53;;
8656;SDS011;4366;50.764;7.184;2023-02-23T19:43:35;28.97;;;14.50;;
8656;SDS011;4366;50.764;7.184;2023-02-23T19:48:40;27.17;;;12.33;;
8656;SDS011;4366;50.764;7.184;2023-02-23T19:53:44;25.17;;;13.57;;
8656;SDS011;4366;50.764;7.184;2023-02-23T19:58:47;28.33;;;12.57;;
8656;SDS011;4366;50.764;7.184;2023-02-23T20:03:49;27.63;;;14.07;;
8656;SDS011;4366;50.764;7.184;2023-02-23T20:09:03;27.03;;;13.03;;
8656;SDS011;4366;50.764;7.184;2023-02-23T20:14:05;26.63;;;13.23;;
8656;SDS011;4366;50.764;7.184;2023-02-23T20:19:08;29.97;;;12.87;;
8656;SDS011;4366;50.764;7.184;2023-02-23T20:24:11;26.00;;;12.03;;
8656;SDS011;4366;50.764;7.184;2023-02-23T20:29:13;26.30;;;13.63;;
8656;SDS011;4366;50.764;7.184;2023-02-23T20:34:20;24.47;;;11.93;;
8656;SDS011;4366;50.764;7.184;2023-02-23T20:39:24;22.50;;;11.57;;
8656;SDS011;4366;50.764;7.184;2023-02-23T20:44:27;28.47;;;12.73;;
8656;SDS011;4366;50.764;7.184;2023-02-23T20:49:30;31.57;;;12.60;;
8656;SDS011;4366;50.764;7.184;2023-02-23T20:54:32;23.83;;;12.27;;
8656;SDS011;4366;50.764;7.184;2023-02-23T20:59:34;22.23;;;12.17;;
8656;SDS011;4366;50.764;7.184;2023-02-23T21:04:36;24.43;;;11.97;;
8656;SDS011;4366;50.764;7.184;2023-02-23T21:09:43;25.27;;;11.53;;
8656;SDS011;4366;50.764;7.184;2023-02-23T21:14:47;21.03;;;10.80;;
8656;SDS011;4366;50.764;7.184;2023-02-23T21:19:51;16.90;;;9.63;;
8656;SDS011;4366;50.764;7.184;2023-02-23T21:24:53;20.17;;;10.20;;
8656;SDS011;4366;50.764;7.184;2023-02-23T21:29:55;19.97;;;11.37;;
8656;SDS011;4366;50.764;7.184;2023-02-23T21:34:56;22.60;;;11.97;;
8656;SDS011;4366;50.764;7.184;2023-02-23T21:40:00;23.00;;;11.77;;
8656;SDS011;4366;50.764;7.184;2023-02-23T21:45:02;20.17;;;10.47;;
8656;SDS011;4366;50.764;7.184;2023-02-23T21:50:04;23.57;;;11.20;;
8656;SDS011;4366;50.764;7.184;2023-02-23T21:55:06;23.83;;;11.33;;
8656;SDS011;4366;50.764;7.184;2023-02-23T22:00:21;17.80;;;9.97;;
8656;SDS011;4366;50.764;7.184;2023-02-23T22:05:23;19.57;;;9.87;;
8656;SDS011;4366;50.764;7.184;2023-02-23T22:10:25;17.57;;;10.17;;
8656;SDS011;4366;50.764;7.184;2023-02-23T22:15:26;18.63;;;10.57;;
8656;SDS011;4366;50.764;7.184;2023-02-23T22:20:28;18.43;;;10.30;;
8656;SDS011;4366;50.764;7.184;2023-02-23T22:25:30;20.73;;;9.70;;
8656;SDS011;4366;50.764;7.184;2023-02-23T22:30:31;21.83;;;11.20;;
8656;SDS011;4366;50.764;7.184;2023-02-23T22:35:33;19.87;;;10.43;;
8656;SDS011;4366;50.764;7.184;2023-02-23T22:40:40;21.97;;;10.60;;
8656;SDS011;4366;50.764;7.184;2023-02-23T22:45:44;26.53;;;11.63;;
8656;SDS011;4366;50.764;7.184;2023-02-23T22:50:46;21.30;;;10.73;;
8656;SDS011;4366;50.764;7.184;2023-02-23T22:55:49;21.00;;;9.17;;
8656;SDS011;4366;50.764;7.184;2023-02-23T23:00:54;20.73;;;10.03;;
8656;SDS011;4366;50.764;7.184;2023-02-23T23:06:11;20.50;;;9.60;;
8656;SDS011;4366;50.764;7.184;2023-02-23T23:11:18;18.87;;;10.00;;
8656;SDS011;4366;50.764;7.184;2023-02-23T23:16:30;23.70;;;10.07;;
8656;SDS011;4366;50.764;7.184;2023-02-23T23:21:34;19.90;;;10.60;;
8656;SDS011;4366;50.764;7.184;2023-02-23T23:26:36;18.13;;;9.77;;
8656;SDS011;4366;50.764;7.184;2023-02-23T23:31:41;20.53;;;10.23;;
8656;SDS011;4366;50.764;7.184;2023-02-23T23:36:47;21.43;;;11.93;;
8656;SDS011;4366;50.764;7.184;2023-02-23T23:41:49;22.30;;;10.90;;
8656;SDS011;4366;50.764;7.184;2023-02-23T23:46:51;23.27;;;11.10;;
8656;SDS011;4366;50.764;7.184;2023-02-23T23:51:54;20.93;;;10.63;;
8656;SDS011;4366;50.764;7.184;2023-02-23T23:56:57;18.47;;;10.87;;
